createdAt,value
2016-09-20T00:00:55.024Z,99.99
2016-09-20T00:01:55.302Z,99.99
2016-09-20T00:02:55.665Z,99.99
2016-09-20T00:03:55.271Z,99.99
2016-09-20T00:04:55.313Z,99.99
2016-09-20T00:05:55.668Z,99.99
2016-09-20T00:06:54.937Z,99.99
2016-09-20T00:07:55.106Z,99.99
2016-09-20T00:08:55.061Z,99.99
2016-09-20T00:09:55.185Z,99.99
2016-09-20T00:10:55.244Z,99.99
2016-09-20T00:11:56.721Z,99.99
2016-09-20T00:12:55.079Z,99.99
2016-09-20T00:13:54.770Z,99.99
2016-09-20T00:14:56.054Z,99.99
2016-09-20T00:15:55.479Z,99.99
2016-09-20T00:16:55.559Z,99.99
2016-09-20T00:17:55.492Z,99.99
2016-09-20T00:18:56.160Z,99.99
2016-09-20T00:19:55.546Z,99.99
2016-09-20T00:20:56.281Z,99.99
2016-09-20T00:21:55.481Z,99.99
2016-09-20T00:22:55.270Z,99.99
2016-09-20T00:23:55.510Z,99.99
2016-09-20T00:24:55.094Z,99.99
2016-09-20T00:25:56.213Z,99.99
2016-09-20T00:26:55.370Z,99.99
2016-09-20T00:27:55.746Z,99.99
2016-09-20T00:28:55.987Z,99.99
2016-09-20T00:29:56.249Z,99.99
2016-09-20T00:30:55.992Z,99.99
2016-09-20T00:31:55.653Z,99.99
2016-09-20T00:32:56.410Z,99.99
2016-09-20T00:33:55.199Z,99.99
2016-09-20T00:34:55.726Z,99.99
2016-09-20T00:35:55.899Z,99.99
2016-09-20T00:36:57.118Z,99.99
2016-09-20T00:37:55.842Z,99.99
2016-09-20T00:38:56.389Z,99.99
2016-09-20T00:39:56.531Z,99.99
2016-09-20T00:40:55.861Z,99.99
2016-09-20T00:41:57.061Z,99.99
2016-09-20T00:42:56.760Z,99.99
2016-09-20T00:43:55.778Z,99.99
2016-09-20T00:44:56.698Z,99.99
2016-09-20T00:45:56.302Z,99.99
2016-09-20T00:46:56.757Z,99.99
2016-09-20T00:47:56.889Z,99.99
2016-09-20T00:48:56.072Z,99.99
2016-09-20T00:49:56.775Z,99.99
2016-09-20T00:50:56.251Z,99.99
2016-09-20T00:51:57.024Z,99.99
2016-09-20T00:52:55.978Z,99.99
2016-09-20T00:53:56.361Z,99.99
2016-09-20T00:54:56.998Z,99.99
2016-09-20T00:55:56.672Z,99.99
2016-09-20T00:56:56.188Z,99.99
2016-09-20T00:57:56.319Z,99.99
2016-09-20T00:58:57.483Z,99.99
2016-09-20T00:59:57.171Z,99.99
2016-09-20T01:00:56.370Z,99.99
2016-09-20T01:01:57.132Z,99.99
2016-09-20T01:02:55.955Z,99.99
2016-09-20T01:03:56.706Z,99.99
2016-09-20T01:04:57.104Z,99.99
2016-09-20T01:05:56.205Z,99.99
2016-09-20T01:06:57.320Z,99.99
2016-09-20T01:07:57.213Z,99.99
2016-09-20T01:08:56.560Z,99.99
2016-09-20T01:09:57.475Z,99.99
2016-09-20T01:10:57.084Z,99.99
2016-09-20T01:11:57.085Z,99.99
2016-09-20T01:12:56.571Z,99.99
2016-09-20T01:13:56.827Z,99.99
2016-09-20T01:14:56.572Z,99.99
2016-09-20T01:15:57.632Z,99.99
2016-09-20T01:16:56.745Z,99.99
2016-09-20T01:17:56.783Z,99.99
2016-09-20T01:18:58.653Z,99.99
2016-09-20T01:19:56.823Z,99.99
2016-09-20T01:20:57.104Z,99.99
2016-09-20T01:21:56.822Z,99.99
2016-09-20T01:22:56.826Z,99.99
2016-09-20T01:23:56.687Z,99.99
2016-09-20T01:24:57.094Z,99.99
2016-09-20T01:25:56.177Z,99.99
2016-09-20T01:26:56.783Z,99.99
2016-09-20T01:27:57.418Z,99.99
2016-09-20T01:28:56.670Z,99.99
2016-09-20T01:29:56.764Z,99.99
2016-09-20T01:30:59.365Z,99.99
2016-09-20T01:31:57.606Z,99.99
2016-09-20T01:32:56.737Z,99.99
2016-09-20T01:33:57.355Z,99.99
2016-09-20T01:34:56.839Z,99.99
2016-09-20T01:35:57.363Z,99.99
2016-09-20T01:36:56.418Z,99.99
2016-09-20T01:37:56.776Z,99.99
2016-09-20T01:38:57.595Z,99.99
2016-09-20T01:39:57.136Z,99.99
2016-09-20T01:40:57.459Z,99.99
2016-09-20T01:41:57.041Z,99.99
2016-09-20T01:42:56.595Z,99.99
2016-09-20T01:43:56.953Z,99.99
2016-09-20T01:44:57.221Z,99.99
2016-09-20T01:45:57.363Z,99.99
2016-09-20T01:46:57.474Z,99.99
2016-09-20T01:47:56.784Z,99.99
2016-09-20T01:48:57.812Z,99.99
2016-09-20T01:49:57.675Z,99.99
2016-09-20T01:50:56.978Z,99.99
2016-09-20T01:51:57.414Z,99.99
2016-09-20T01:52:58.216Z,99.99
2016-09-20T01:53:56.973Z,99.99
2016-09-20T01:54:57.389Z,99.99
2016-09-20T01:55:57.230Z,99.99
2016-09-20T01:56:57.253Z,99.99
2016-09-20T01:57:57.111Z,99.99
2016-09-20T01:58:57.196Z,99.99
2016-09-20T01:59:57.309Z,99.99
2016-09-20T02:00:57.716Z,99.99
2016-09-20T02:01:57.517Z,99.99
2016-09-20T02:02:57.505Z,99.99
2016-09-20T02:03:57.278Z,99.99
2016-09-20T02:04:57.109Z,99.99
2016-09-20T02:05:58.240Z,99.99
2016-09-20T02:06:57.309Z,99.99
2016-09-20T02:07:58.266Z,99.99
2016-09-20T02:08:57.184Z,99.99
2016-09-20T02:09:57.470Z,99.99
2016-09-20T02:10:58.065Z,99.99
2016-09-20T02:11:58.802Z,99.99
2016-09-20T02:12:58.340Z,99.99
2016-09-20T02:13:58.998Z,99.99
2016-09-20T02:14:57.365Z,99.99
2016-09-20T02:15:58.268Z,99.99
2016-09-20T02:16:58.189Z,99.99
2016-09-20T02:17:57.549Z,99.99
2016-09-20T02:18:57.806Z,99.99
2016-09-20T02:19:58.158Z,99.99
2016-09-20T02:20:59.014Z,99.99
2016-09-20T02:21:57.534Z,99.99
2016-09-20T02:22:57.898Z,99.99
2016-09-20T02:23:57.720Z,99.99
2016-09-20T02:24:57.945Z,99.99
2016-09-20T02:25:58.424Z,99.99
2016-09-20T02:27:00.292Z,99.99
2016-09-20T02:27:59.167Z,99.99
2016-09-20T02:28:58.056Z,99.99
2016-09-20T02:29:57.462Z,99.99
2016-09-20T02:30:57.850Z,99.99
2016-09-20T02:31:57.924Z,99.99
2016-09-20T02:32:58.142Z,99.99
2016-09-20T02:33:57.419Z,99.99
2016-09-20T02:34:58.550Z,99.99
2016-09-20T02:35:57.671Z,99.99
2016-09-20T02:36:57.834Z,99.99
2016-09-20T02:37:58.552Z,99.99
2016-09-20T02:38:58.269Z,99.99
2016-09-20T02:39:57.936Z,99.99
2016-09-20T02:40:58.136Z,99.99
2016-09-20T02:41:57.759Z,99.99
2016-09-20T02:42:57.620Z,99.99
2016-09-20T02:43:58.677Z,99.99
2016-09-20T02:44:58.154Z,99.99
2016-09-20T02:45:59.372Z,99.99
2016-09-20T02:46:59.705Z,99.99
2016-09-20T02:47:58.427Z,99.99
2016-09-20T02:48:59.255Z,99.99
2016-09-20T02:49:58.318Z,99.99
2016-09-20T02:50:59.277Z,99.99
2016-09-20T02:51:57.919Z,99.99
2016-09-20T02:52:57.792Z,99.99
2016-09-20T02:53:58.734Z,99.99
2016-09-20T02:54:58.173Z,99.99
2016-09-20T02:55:57.844Z,99.99
2016-09-20T02:56:59.384Z,99.99
2016-09-20T02:57:58.337Z,99.99
2016-09-20T02:58:59.228Z,99.99
2016-09-20T02:59:58.233Z,99.99
2016-09-20T03:00:58.205Z,99.99
2016-09-20T03:01:58.736Z,99.99
2016-09-20T03:03:00.039Z,99.99
2016-09-20T03:03:58.984Z,99.99
2016-09-20T03:04:59.087Z,99.99
2016-09-20T03:05:58.852Z,99.99
2016-09-20T03:06:58.040Z,99.99
2016-09-20T03:07:58.627Z,99.99
2016-09-20T03:08:59.234Z,99.99
2016-09-20T03:09:58.226Z,99.99
2016-09-20T03:10:59.477Z,99.99
2016-09-20T03:11:59.320Z,99.99
2016-09-20T03:12:59.426Z,99.99
2016-09-20T03:13:59.519Z,99.99
2016-09-20T03:14:59.084Z,99.99
2016-09-20T03:15:58.954Z,99.99
2016-09-20T03:16:59.209Z,99.99
2016-09-20T03:18:00.091Z,99.99
2016-09-20T03:18:59.760Z,99.99
2016-09-20T03:19:59.340Z,99.99
2016-09-20T03:20:59.457Z,99.99
2016-09-20T03:21:59.390Z,99.99
2016-09-20T03:22:58.861Z,99.99
2016-09-20T03:23:59.456Z,99.99
2016-09-20T03:24:59.734Z,99.99
2016-09-20T03:25:59.704Z,99.99
2016-09-20T03:26:59.415Z,99.99
2016-09-20T03:27:59.234Z,99.99
2016-09-20T03:28:59.169Z,99.99
2016-09-20T03:29:59.644Z,99.99
2016-09-20T03:30:58.884Z,99.99
2016-09-20T03:31:59.005Z,99.99
2016-09-20T03:32:59.457Z,99.99
2016-09-20T03:33:59.140Z,99.99
2016-09-20T03:34:59.309Z,99.99
2016-09-20T03:35:59.385Z,99.99
2016-09-20T03:36:59.909Z,99.99
2016-09-20T03:37:59.419Z,99.99
2016-09-20T03:39:01.553Z,99.99
2016-09-20T03:40:00.368Z,99.99
2016-09-20T03:40:59.778Z,99.99
2016-09-20T03:41:59.636Z,99.99
2016-09-20T03:42:59.693Z,99.99
2016-09-20T03:43:59.514Z,99.99
2016-09-20T03:45:00.668Z,99.99
2016-09-20T03:46:00.194Z,99.99
2016-09-20T03:47:00.492Z,99.99
2016-09-20T03:47:59.627Z,99.99
2016-09-20T03:48:59.894Z,99.99
2016-09-20T03:50:00.875Z,99.99
2016-09-20T03:50:59.576Z,99.99
2016-09-20T03:52:00.350Z,99.99
2016-09-20T03:52:59.700Z,99.99
2016-09-20T03:53:59.512Z,99.99
2016-09-20T03:54:59.416Z,99.99
2016-09-20T03:56:00.156Z,99.99
2016-09-20T03:56:59.554Z,99.99
2016-09-20T03:58:00.467Z,99.99
2016-09-20T03:59:00.182Z,99.99
2016-09-20T03:59:59.178Z,99.99
2016-09-20T04:00:59.833Z,99.99
2016-09-20T04:01:59.808Z,99.99
2016-09-20T04:03:00.254Z,99.99
2016-09-20T04:04:00.162Z,99.99
2016-09-20T04:05:00.186Z,99.99
2016-09-20T04:06:02.114Z,99.99
2016-09-20T04:07:00.054Z,99.99
2016-09-20T04:08:00.791Z,99.99
2016-09-20T04:08:59.493Z,99.99
2016-09-20T04:09:59.864Z,99.99
2016-09-20T04:11:02.869Z,99.99
2016-09-20T04:12:00.658Z,99.99
2016-09-20T04:13:00.315Z,99.99
2016-09-20T04:13:59.995Z,99.99
2016-09-20T04:15:01.069Z,99.99
2016-09-20T04:16:00.311Z,99.99
2016-09-20T04:16:59.636Z,99.99
2016-09-20T04:18:00.039Z,99.99
2016-09-20T04:19:00.864Z,99.99
2016-09-20T04:20:00.714Z,99.99
2016-09-20T04:21:00.682Z,99.99
2016-09-20T04:22:00.915Z,99.99
2016-09-20T04:23:01.542Z,99.99
2016-09-20T04:24:00.572Z,99.99
2016-09-20T04:25:02.138Z,99.99
2016-09-20T04:26:00.886Z,99.99
2016-09-20T04:27:01.510Z,99.99
2016-09-20T04:28:00.613Z,99.99
2016-09-20T04:29:00.694Z,99.99
2016-09-20T04:30:00.460Z,99.99
2016-09-20T04:31:02.338Z,99.99
2016-09-20T04:32:01.650Z,99.99
2016-09-20T04:33:01.818Z,99.99
2016-09-20T04:34:00.950Z,99.99
2016-09-20T04:35:01.193Z,99.99
2016-09-20T04:36:00.720Z,99.99
2016-09-20T04:37:01.144Z,99.99
2016-09-20T04:38:01.385Z,99.99
2016-09-20T04:39:02.912Z,99.99
2016-09-20T04:40:00.753Z,99.99
2016-09-20T04:41:01.051Z,99.99
2016-09-20T04:42:00.366Z,99.99
2016-09-20T04:43:00.760Z,99.99
2016-09-20T04:44:00.460Z,99.99
2016-09-20T04:45:00.342Z,99.99
2016-09-20T04:46:00.877Z,99.99
2016-09-20T04:47:01.010Z,99.99
2016-09-20T04:48:01.773Z,99.99
2016-09-20T04:50:00.857Z,99.99
2016-09-20T04:51:01.069Z,99.99
2016-09-20T04:52:00.854Z,99.99
2016-09-20T04:53:01.728Z,99.99
2016-09-20T04:54:01.076Z,99.99
2016-09-20T04:55:00.694Z,99.99
2016-09-20T04:56:01.022Z,99.99
2016-09-20T04:57:01.589Z,99.99
2016-09-20T04:58:01.668Z,99.99
2016-09-20T04:59:00.949Z,99.99
2016-09-20T05:00:01.613Z,99.99
2016-09-20T05:01:02.035Z,99.99
2016-09-20T05:02:01.247Z,99.99
2016-09-20T05:03:01.122Z,99.99
2016-09-20T05:04:01.743Z,99.99
2016-09-20T05:05:01.356Z,99.99
2016-09-20T05:06:01.004Z,99.99
2016-09-20T05:07:02.697Z,99.99
2016-09-20T05:08:01.551Z,99.99
2016-09-20T05:09:02.259Z,99.99
2016-09-20T05:10:02.153Z,99.99
2016-09-20T05:11:02.034Z,99.99
2016-09-20T05:12:01.449Z,99.99
2016-09-20T05:13:01.004Z,99.99
2016-09-20T05:14:01.593Z,99.99
2016-09-20T05:15:01.026Z,99.99
2016-09-20T05:16:00.977Z,99.99
2016-09-20T05:17:02.128Z,99.99
2016-09-20T05:18:01.871Z,99.99
2016-09-20T05:19:02.035Z,99.99
2016-09-20T05:20:01.726Z,99.99
2016-09-20T05:21:01.330Z,99.99
2016-09-20T05:22:01.191Z,99.99
2016-09-20T05:23:02.286Z,99.99
2016-09-20T05:24:01.720Z,99.99
2016-09-20T05:25:01.869Z,99.99
2016-09-20T05:26:01.497Z,99.99
2016-09-20T05:27:00.785Z,99.99
2016-09-20T05:28:01.846Z,99.99
2016-09-20T05:29:01.362Z,99.99
2016-09-20T05:30:01.080Z,99.99
2016-09-20T05:31:02.257Z,99.99
2016-09-20T05:32:01.324Z,99.99
2016-09-20T05:33:01.724Z,99.99
2016-09-20T05:34:00.955Z,99.99
2016-09-20T05:35:02.643Z,99.99
2016-09-20T05:36:02.497Z,99.99
2016-09-20T05:37:02.185Z,99.99
2016-09-20T05:38:02.585Z,99.99
2016-09-20T05:39:02.439Z,99.99
2016-09-20T05:40:01.845Z,99.99
2016-09-20T05:41:02.537Z,99.99
2016-09-20T05:42:01.761Z,99.99
2016-09-20T05:43:02.163Z,99.99
2016-09-20T05:44:01.407Z,99.99
2016-09-20T05:45:02.754Z,99.99
2016-09-20T05:46:02.550Z,99.99
2016-09-20T05:47:02.593Z,99.99
2016-09-20T05:48:01.857Z,99.99
2016-09-20T05:49:01.620Z,99.99
2016-09-20T05:50:01.484Z,99.99
2016-09-20T05:51:01.411Z,99.99
2016-09-20T05:52:01.387Z,99.99
2016-09-20T05:53:01.581Z,99.99
2016-09-20T05:54:01.953Z,99.99
2016-09-20T05:55:01.757Z,99.99
2016-09-20T05:56:02.057Z,99.99
2016-09-20T05:57:02.189Z,99.99
2016-09-20T05:58:02.538Z,99.99
2016-09-20T05:59:03.352Z,99.99
2016-09-20T06:00:01.524Z,99.99
2016-09-20T06:01:02.337Z,99.99
2016-09-20T06:02:02.022Z,99.99
2016-09-20T06:03:02.915Z,99.99
2016-09-20T06:04:02.230Z,99.99
2016-09-20T06:05:02.761Z,99.99
2016-09-20T06:06:02.834Z,99.99
2016-09-20T06:07:02.422Z,99.99
2016-09-20T06:08:03.031Z,99.99
2016-09-20T06:09:02.380Z,99.99
2016-09-20T06:10:02.894Z,99.99
2016-09-20T06:11:02.275Z,99.99
2016-09-20T06:12:02.023Z,99.99
2016-09-20T06:13:02.491Z,99.99
2016-09-20T06:14:02.826Z,99.99
2016-09-20T06:15:02.538Z,99.99
2016-09-20T06:16:02.537Z,99.99
2016-09-20T06:17:01.915Z,99.99
2016-09-20T06:18:02.750Z,99.99
2016-09-20T06:19:02.063Z,99.99
2016-09-20T06:20:02.707Z,99.99
2016-09-20T06:21:02.138Z,99.99
2016-09-20T06:22:02.723Z,99.99
2016-09-20T06:23:02.246Z,99.99
2016-09-20T06:24:02.691Z,99.99
2016-09-20T06:25:03.299Z,99.99
2016-09-20T06:26:03.338Z,99.99
2016-09-20T06:27:02.809Z,99.99
2016-09-20T06:28:03.141Z,99.99
2016-09-20T06:29:02.763Z,99.99
2016-09-20T06:30:03.160Z,99.99
2016-09-20T06:31:02.622Z,99.99
2016-09-20T06:32:04.019Z,99.99
2016-09-20T06:33:03.192Z,99.99
2016-09-20T06:34:03.279Z,99.99
2016-09-20T06:35:02.191Z,99.99
2016-09-20T06:36:02.790Z,99.99
2016-09-20T06:37:02.428Z,99.99
2016-09-20T06:38:02.795Z,99.99
2016-09-20T06:39:02.803Z,99.99
2016-09-20T06:40:02.891Z,99.99
2016-09-20T06:41:03.017Z,99.99
2016-09-20T06:42:03.513Z,99.99
2016-09-20T06:43:03.889Z,99.99
2016-09-20T06:44:04.422Z,99.99
2016-09-20T06:45:02.743Z,99.99
2016-09-20T06:46:03.443Z,99.99
2016-09-20T06:47:02.756Z,99.99
2016-09-20T06:48:02.852Z,99.99
2016-09-20T06:49:03.356Z,99.99
2016-09-20T06:50:02.825Z,99.99
2016-09-20T06:51:03.391Z,99.99
2016-09-20T06:52:03.804Z,99.99
2016-09-20T06:53:03.576Z,99.99
2016-09-20T06:54:02.521Z,99.99
2016-09-20T06:55:03.148Z,99.99
2016-09-20T06:56:03.451Z,99.99
2016-09-20T06:57:03.962Z,99.99
2016-09-20T06:58:03.587Z,99.99
2016-09-20T06:59:02.993Z,99.99
2016-09-20T07:00:03.179Z,99.99
2016-09-20T07:01:03.973Z,99.99
2016-09-20T07:02:03.362Z,99.99
2016-09-20T07:03:03.422Z,99.99
2016-09-20T07:04:03.534Z,99.99
2016-09-20T07:05:04.351Z,99.99
2016-09-20T07:06:03.437Z,99.99
2016-09-20T07:07:03.318Z,99.99
2016-09-20T07:08:03.326Z,99.99
2016-09-20T07:09:03.653Z,99.99
2016-09-20T07:10:04.839Z,99.99
2016-09-20T07:11:03.937Z,99.99
2016-09-20T07:12:03.117Z,99.99
2016-09-20T07:13:03.179Z,99.99
2016-09-20T07:14:03.479Z,99.99
2016-09-20T07:15:03.840Z,99.99
2016-09-20T07:16:04.790Z,99.99
2016-09-20T07:17:04.134Z,99.99
2016-09-20T07:18:03.589Z,99.99
2016-09-20T07:19:03.739Z,99.99
2016-09-20T07:20:03.935Z,99.99
2016-09-20T07:21:03.794Z,99.99
2016-09-20T07:22:03.942Z,99.99
2016-09-20T07:23:04.363Z,99.99
2016-09-20T07:24:03.734Z,99.99
2016-09-20T07:25:03.713Z,99.99
2016-09-20T07:26:03.672Z,99.99
2016-09-20T07:27:04.173Z,99.99
2016-09-20T07:28:03.653Z,99.99
2016-09-20T07:29:04.862Z,99.99
2016-09-20T07:30:03.688Z,99.99
2016-09-20T07:31:03.997Z,99.99
2016-09-20T07:32:03.662Z,99.99
2016-09-20T07:33:04.362Z,99.99
2016-09-20T07:34:04.504Z,99.99
2016-09-20T07:35:04.278Z,99.99
2016-09-20T07:36:04.541Z,99.99
2016-09-20T07:37:05.073Z,99.99
2016-09-20T07:38:04.681Z,99.99
2016-09-20T07:39:03.805Z,99.99
2016-09-20T07:40:04.369Z,99.99
2016-09-20T07:41:04.765Z,99.99
2016-09-20T07:42:03.960Z,99.99
2016-09-20T07:43:03.752Z,99.99
2016-09-20T07:44:04.461Z,99.85
2016-09-20T07:45:05.265Z,99.85
2016-09-20T07:46:04.121Z,99.99
2016-09-20T07:47:04.704Z,99.99
2016-09-20T07:48:04.032Z,99.23
2016-09-20T07:49:04.966Z,98.47
2016-09-20T07:50:04.565Z,99.28
2016-09-20T07:51:04.266Z,99.28
2016-09-20T07:52:04.400Z,98.23
2016-09-20T07:53:04.919Z,97.28
2016-09-20T07:54:04.291Z,98.04
2016-09-20T07:55:04.270Z,98.52
2016-09-20T07:56:04.491Z,97.37
2016-09-20T07:57:04.690Z,97.66
2016-09-20T07:58:05.708Z,97.28
2016-09-20T07:59:04.537Z,97.66
2016-09-20T08:00:04.890Z,97.56
2016-09-20T08:01:04.603Z,97.61
2016-09-20T08:02:04.840Z,97.37
2016-09-20T08:03:04.233Z,97.08
2016-09-20T08:04:04.955Z,95.94
2016-09-20T08:05:05.572Z,97.42
2016-09-20T08:06:04.454Z,97.33
2016-09-20T08:07:04.526Z,96.75
2016-09-20T08:08:05.019Z,96.56
2016-09-20T08:09:04.736Z,95.98
2016-09-20T08:10:04.654Z,97.99
2016-09-20T08:11:04.195Z,96.27
2016-09-20T08:12:04.387Z,95.41
2016-09-20T08:13:04.881Z,96.47
2016-09-20T08:14:05.304Z,96.94
2016-09-20T08:15:04.410Z,96.47
2016-09-20T08:16:04.776Z,94.65
2016-09-20T08:17:04.307Z,95.03
2016-09-20T08:18:04.977Z,95.51
2016-09-20T08:19:04.479Z,95.89
2016-09-20T08:20:05.363Z,94.98
2016-09-20T08:21:05.130Z,94.74
2016-09-20T08:22:04.600Z,93.16
2016-09-20T08:23:05.812Z,95.75
2016-09-20T08:24:04.801Z,94.31
2016-09-20T08:25:05.972Z,93.26
2016-09-20T08:26:05.202Z,95.36
2016-09-20T08:27:05.353Z,95.46
2016-09-20T08:28:06.924Z,95.17
2016-09-20T08:29:06.844Z,93.45
2016-09-20T08:30:06.395Z,92.69
2016-09-20T08:31:05.916Z,92.02
2016-09-20T08:32:05.232Z,92.97
2016-09-20T08:33:05.623Z,93.4
2016-09-20T08:34:04.969Z,92.25
2016-09-20T08:35:05.409Z,93.12
2016-09-20T08:36:06.085Z,91.77
2016-09-20T08:37:05.737Z,93.12
2016-09-20T08:38:04.801Z,91.58
2016-09-20T08:39:06.580Z,91.97
2016-09-20T08:40:05.502Z,91.44
2016-09-20T08:41:05.620Z,89.04
2016-09-20T08:42:06.378Z,88.56
2016-09-20T08:43:05.783Z,88.56
2016-09-20T08:44:05.578Z,88.28
2016-09-20T08:45:06.006Z,85.5
2016-09-20T08:46:06.430Z,85.41
2016-09-20T08:47:06.265Z,83.87
2016-09-20T08:48:06.958Z,83.63
2016-09-20T08:49:05.686Z,84.97
2016-09-20T08:50:05.087Z,80.94
2016-09-20T08:51:05.352Z,81.52
2016-09-20T08:52:05.389Z,78.74
2016-09-20T08:53:05.873Z,78.36
2016-09-20T08:54:05.751Z,79.26
2016-09-20T08:55:05.859Z,78.17
2016-09-20T08:56:05.570Z,76.25
2016-09-20T08:57:05.346Z,75.87
2016-09-20T08:58:05.522Z,76.25
2016-09-20T08:59:05.708Z,78.27
2016-09-20T09:00:06.718Z,78.64
2016-09-20T09:01:05.412Z,78.27
2016-09-20T09:02:06.211Z,78.45
2016-09-20T09:03:05.706Z,78.4
2016-09-20T09:04:07.409Z,76.77
2016-09-20T09:05:05.874Z,77.63
2016-09-20T09:06:06.762Z,77.25
2016-09-20T09:07:06.393Z,75.62
2016-09-20T09:08:05.957Z,76.1
2016-09-20T09:09:05.984Z,78.69
2016-09-20T09:10:06.113Z,75.81
2016-09-20T09:11:06.596Z,77.63
2016-09-20T09:12:07.162Z,80.6
2016-09-20T09:13:05.494Z,78.11
2016-09-20T09:14:06.194Z,78.02
2016-09-20T09:15:05.772Z,78.4
2016-09-20T09:16:07.371Z,78.49
2016-09-20T09:17:07.613Z,77.15
2016-09-20T09:18:05.742Z,76
2016-09-20T09:19:06.195Z,78.3
2016-09-20T09:20:06.523Z,73.61
2016-09-20T09:21:06.098Z,74.08
2016-09-20T09:22:06.110Z,74.27
2016-09-20T09:23:06.083Z,76.1
2016-09-20T09:24:06.534Z,77.82
2016-09-20T09:25:05.672Z,78.11
2016-09-20T09:26:06.970Z,80.12
2016-09-20T09:27:06.756Z,82.52
2016-09-20T09:28:06.898Z,78.02
2016-09-20T09:29:07.309Z,78.11
2016-09-20T09:30:06.627Z,78.78
2016-09-20T09:31:06.698Z,77.63
2016-09-20T09:32:07.294Z,78.59
2016-09-20T09:33:06.907Z,78.11
2016-09-20T09:34:07.254Z,80.89
2016-09-20T09:35:07.550Z,78.82
2016-09-20T09:36:07.030Z,77.76
2016-09-20T09:37:07.051Z,76.32
2016-09-20T09:38:06.900Z,76.14
2016-09-20T09:39:06.638Z,77.51
2016-09-20T09:40:07.022Z,77.09
2016-09-20T09:41:06.895Z,77.19
2016-09-20T09:42:06.521Z,75.31
2016-09-20T09:43:06.550Z,73.58
2016-09-20T09:44:07.113Z,75.12
2016-09-20T09:45:07.729Z,76.84
2016-09-20T09:46:06.393Z,74.93
2016-09-20T09:47:07.554Z,73.49
2016-09-20T09:48:07.399Z,72.37
2016-09-20T09:49:06.365Z,73.43
2016-09-20T09:50:06.869Z,72.37
2016-09-20T09:51:06.890Z,71.7
2016-09-20T09:52:06.690Z,71.41
2016-09-20T09:53:06.829Z,73.85
2016-09-20T09:54:06.930Z,73.79
2016-09-20T09:55:08.156Z,72.34
2016-09-20T09:56:07.025Z,67
2016-09-20T09:57:07.917Z,66.14
2016-09-20T09:58:07.855Z,62.32
2016-09-20T09:59:06.974Z,66.46
2016-09-20T10:00:07.476Z,66.49
2016-09-20T10:01:07.381Z,67.42
2016-09-20T10:02:07.036Z,68.96
2016-09-20T10:03:06.665Z,70.15
2016-09-20T10:04:07.778Z,63.41
2016-09-20T10:05:07.359Z,65.78
2016-09-20T10:06:07.285Z,61
2016-09-20T10:07:08.125Z,60.17
2016-09-20T10:08:07.677Z,55.87
2016-09-20T10:09:07.320Z,56.95
2016-09-20T10:10:07.419Z,58.11
2016-09-20T10:11:07.504Z,60.97
2016-09-20T10:12:07.257Z,62.03
2016-09-20T10:13:07.234Z,50.78
2016-09-20T10:14:08.021Z,55.89
2016-09-20T10:15:08.124Z,51.29
2016-09-20T10:16:07.264Z,49.55
2016-09-20T10:17:07.646Z,49.6
2016-09-20T10:18:07.300Z,48.9
2016-09-20T10:19:08.133Z,45.82
2016-09-20T10:20:08.017Z,46.73
2016-09-20T10:21:07.525Z,46.52
2016-09-20T10:22:08.090Z,47.77
2016-09-20T10:23:07.549Z,48.79
2016-09-20T10:24:08.617Z,51.84
2016-09-20T10:25:08.747Z,54.53
2016-09-20T10:26:08.124Z,54.41
2016-09-20T10:27:08.254Z,54.57
2016-09-20T10:28:07.657Z,55.98
2016-09-20T10:29:09.948Z,52.03
2016-09-20T10:30:08.088Z,52.06
2016-09-20T10:31:07.700Z,50.1
2016-09-20T10:32:08.338Z,50.25
2016-09-20T10:33:09.608Z,52.63
2016-09-20T10:34:08.396Z,49.55
2016-09-20T10:35:07.667Z,50.2
2016-09-20T10:36:08.882Z,49.51
2016-09-20T10:37:07.904Z,54.41
2016-09-20T10:38:07.560Z,53.28
2016-09-20T10:39:07.616Z,54.85
2016-09-20T10:40:07.852Z,48.81
2016-09-20T10:41:09.365Z,55.93
2016-09-20T10:42:08.124Z,47.89
2016-09-20T10:43:07.936Z,44.64
2016-09-20T10:44:08.522Z,45.24
2016-09-20T10:45:08.276Z,40.63
2016-09-20T10:46:07.910Z,41.98
2016-09-20T10:47:08.862Z,42.93
2016-09-20T10:48:09.789Z,43.12
2016-09-20T10:49:09.164Z,44.52
2016-09-20T10:50:07.847Z,46.86
2016-09-20T10:51:08.885Z,47.65
2016-09-20T10:52:08.238Z,51.44
2016-09-20T10:53:07.881Z,50.79
2016-09-20T10:54:08.910Z,50.76
2016-09-20T10:55:08.413Z,44.02
2016-09-20T10:56:08.287Z,41.62
2016-09-20T10:57:08.858Z,42.71
2016-09-20T10:58:08.119Z,42.34
2016-09-20T10:59:09.021Z,42.3
2016-09-20T11:00:09.353Z,43.61
2016-09-20T11:01:08.158Z,43.98
2016-09-20T11:02:08.504Z,44.19
2016-09-20T11:03:08.153Z,38.25
2016-09-20T11:04:08.953Z,35.73
2016-09-20T11:05:08.163Z,39.24
2016-09-20T11:06:08.383Z,38.15
2016-09-20T11:07:09.100Z,34.36
2016-09-20T11:08:08.329Z,39.36
2016-09-20T11:09:08.951Z,37.98
2016-09-20T11:10:08.899Z,43.45
2016-09-20T11:11:09.697Z,40.19
2016-09-20T11:12:09.593Z,41.05
2016-09-20T11:13:08.675Z,35.39
2016-09-20T11:14:09.758Z,35.58
2016-09-20T11:15:09.023Z,33.26
2016-09-20T11:16:09.239Z,37.96
2016-09-20T11:17:09.006Z,37
2016-09-20T11:18:09.013Z,36.79
2016-09-20T11:19:08.807Z,36.98
2016-09-20T11:20:10.027Z,39.06
2016-09-20T11:21:09.202Z,37.91
2016-09-20T11:22:09.976Z,37.83
2016-09-20T11:23:09.713Z,39.47
2016-09-20T11:24:09.774Z,37.63
2016-09-20T11:25:10.612Z,40.01
2016-09-20T11:26:10.639Z,40.01
2016-09-20T11:27:09.309Z,41.05
2016-09-20T11:28:09.673Z,38.93
2016-09-20T11:29:09.923Z,40.57
2016-09-20T11:30:09.936Z,38.64
2016-09-20T11:31:09.830Z,39.29
2016-09-20T11:32:09.682Z,40.07
2016-09-20T11:33:09.886Z,43.4
2016-09-20T11:34:09.535Z,41.2
2016-09-20T11:35:09.275Z,39.37
2016-09-20T11:36:11.282Z,46.14
2016-09-20T11:37:09.419Z,44.13
2016-09-20T11:38:10.059Z,42.11
2016-09-20T11:39:09.575Z,44.76
2016-09-20T11:40:09.408Z,44.49
2016-09-20T11:41:09.474Z,47.65
2016-09-20T11:42:11.974Z,46.71
2016-09-20T11:43:09.760Z,44.89
2016-09-20T11:44:10.076Z,44.57
2016-09-20T11:45:10.354Z,42.63
2016-09-20T11:46:09.726Z,44.34
2016-09-20T11:47:10.383Z,43.28
2016-09-20T11:48:10.340Z,44.22
2016-09-20T11:49:09.446Z,44.99
2016-09-20T11:50:09.942Z,44.22
2016-09-20T11:51:10.022Z,44.05
2016-09-20T11:52:10.822Z,44.05
2016-09-20T11:53:10.485Z,42.05
2016-09-20T11:54:11.362Z,40.72
2016-09-20T11:55:10.550Z,44.52
2016-09-20T11:56:09.790Z,47.55
2016-09-20T11:57:10.844Z,41.96
2016-09-20T11:58:10.512Z,39.26
2016-09-20T11:59:10.674Z,43.77
2016-09-20T12:00:10.067Z,43.7
2016-09-20T12:01:11.376Z,40.51
2016-09-20T12:02:11.053Z,37.33
2016-09-20T12:03:10.903Z,38.89
2016-09-20T12:04:11.357Z,36.59
2016-09-20T12:05:10.543Z,44.26
2016-09-20T12:06:10.335Z,35.78
2016-09-20T12:07:11.248Z,38.46
2016-09-20T12:08:10.805Z,38.04
2016-09-20T12:09:11.317Z,32.94
2016-09-20T12:10:11.337Z,31.79
2016-09-20T12:11:11.798Z,36.99
2016-09-20T12:12:11.167Z,31.76
2016-09-20T12:13:10.486Z,30.89
2016-09-20T12:14:11.218Z,34.57
2016-09-20T12:15:11.508Z,30.89
2016-09-20T12:16:10.610Z,32.89
2016-09-20T12:17:11.227Z,33.05
2016-09-20T12:18:11.294Z,33.42
2016-09-20T12:19:11.118Z,34.97
2016-09-20T12:20:10.783Z,38.91
2016-09-20T12:21:11.375Z,39.16
2016-09-20T12:22:11.727Z,37.04
2016-09-20T12:23:11.216Z,39.45
2016-09-20T12:24:11.311Z,43.29
2016-09-20T12:25:11.628Z,42.02
2016-09-20T12:26:10.891Z,39.01
2016-09-20T12:27:11.682Z,40.91
2016-09-20T12:28:11.021Z,37.95
2016-09-20T12:29:11.652Z,34.38
2016-09-20T12:30:12.233Z,38.91
2016-09-20T12:31:11.261Z,39.03
2016-09-20T12:32:11.879Z,40.28
2016-09-20T12:33:12.333Z,39.12
2016-09-20T12:34:11.408Z,41.05
2016-09-20T12:35:11.998Z,39.11
2016-09-20T12:36:11.830Z,39.66
2016-09-20T12:37:11.539Z,40.12
2016-09-20T12:38:11.180Z,42.72
2016-09-20T12:39:11.381Z,39.91
2016-09-20T12:40:11.709Z,41.86
2016-09-20T12:41:12.765Z,41.03
2016-09-20T12:42:12.121Z,38.37
2016-09-20T12:43:11.141Z,36.75
2016-09-20T12:44:12.020Z,36.87
2016-09-20T12:45:12.753Z,35.92
2016-09-20T12:46:11.489Z,35.82
2016-09-20T12:47:11.735Z,37.06
2016-09-20T12:48:11.655Z,38.1
2016-09-20T12:49:11.883Z,42.4
2016-09-20T12:50:11.387Z,39.61
2016-09-20T12:51:12.152Z,39.78
2016-09-20T12:52:12.159Z,41.34
2016-09-20T12:53:12.185Z,38.35
2016-09-20T12:54:12.093Z,36.89
2016-09-20T12:55:12.090Z,37.74